sensor_id;sensor_type;location;lat;lon;timestamp;temperature;humidity
40123;DHT22;25832;45.490;4.912;2022-11-15T00:00:17;11.70;99.90
40123;DHT22;25832;45.490;4.912;2022-11-15T00:02:43;11.70;99.90
40123;DHT22;25832;45.490;4.912;2022-11-15T00:05:09;11.70;99.90
40123;DHT22;25832;45.490;4.912;2022-11-15T00:07:35;11.70;99.90
40123;DHT22;25832;45.490;4.912;2022-11-15T00:10:00;11.80;99.90
40123;DHT22;25832;45.490;4.912;2022-11-15T00:12:27;11.70;99.90
40123;DHT22;25832;45.490;4.912;2022-11-15T00:14:53;11.80;99.90
40123;DHT22;25832;45.490;4.912;2022-11-15T00:17:19;11.70;99.90
40123;DHT22;25832;45.490;4.912;2022-11-15T00:19:44;11.70;99.90
40123;DHT22;25832;45.490;4.912;2022-11-15T00:22:10;11.70;99.90
40123;DHT22;25832;45.490;4.912;2022-11-15T00:24:36;11.70;99.90
40123;DHT22;25832;45.490;4.912;2022-11-15T00:27:02;11.80;99.90
40123;DHT22;25832;45.490;4.912;2022-11-15T00:29:28;11.80;99.90
40123;DHT22;25832;45.490;4.912;2022-11-15T00:31:53;11.80;99.90
40123;DHT22;25832;45.490;4.912;2022-11-15T00:34:19;11.80;99.90
40123;DHT22;25832;45.490;4.912;2022-11-15T00:36:45;11.70;99.90
40123;DHT22;25832;45.490;4.912;2022-11-15T00:39:10;11.70;99.90
40123;DHT22;25832;45.490;4.912;2022-11-15T00:41:36;11.70;99.90
40123;DHT22;25832;45.490;4.912;2022-11-15T00:44:02;11.70;99.90
40123;DHT22;25832;45.490;4.912;2022-11-15T00:46:27;11.70;99.90
40123;DHT22;25832;45.490;4.912;2022-11-15T00:48:53;11.80;99.90
40123;DHT22;25832;45.490;4.912;2022-11-15T00:51:19;11.80;99.90
40123;DHT22;25832;45.490;4.912;2022-11-15T00:53:44;11.70;99.90
40123;DHT22;25832;45.490;4.912;2022-11-15T00:56:10;11.70;99.90
40123;DHT22;25832;45.490;4.912;2022-11-15T00:58:35;11.70;99.90
40123;DHT22;25832;45.490;4.912;2022-11-15T01:01:13;11.70;99.90
40123;DHT22;25832;45.490;4.912;2022-11-15T01:03:39;11.70;99.90
40123;DHT22;25832;45.490;4.912;2022-11-15T01:06:07;11.70;99.90
40123;DHT22;25832;45.490;4.912;2022-11-15T01:08:33;11.70;99.90
40123;DHT22;25832;45.490;4.912;2022-11-15T01:11:05;11.80;99.90
40123;DHT22;25832;45.490;4.912;2022-11-15T01:13:33;11.80;99.90
40123;DHT22;25832;45.490;4.912;2022-11-15T01:16:10;11.80;99.90
40123;DHT22;25832;45.490;4.912;2022-11-15T01:18:36;11.80;99.90
40123;DHT22;25832;45.490;4.912;2022-11-15T01:21:07;11.70;99.90
40123;DHT22;25832;45.490;4.912;2022-11-15T01:23:33;11.70;99.90
40123;DHT22;25832;45.490;4.912;2022-11-15T01:26:04;11.70;99.90
40123;DHT22;25832;45.490;4.912;2022-11-15T01:28:32;11.70;99.90
40123;DHT22;25832;45.490;4.912;2022-11-15T01:31:05;11.70;99.90
40123;DHT22;25832;45.490;4.912;2022-11-15T01:33:34;11.70;99.90
40123;DHT22;25832;45.490;4.912;2022-11-15T01:36:04;11.70;99.90
40123;DHT22;25832;45.490;4.912;2022-11-15T01:38:30;11.70;99.90
40123;DHT22;25832;45.490;4.912;2022-11-15T01:40:56;11.60;99.90
40123;DHT22;25832;45.490;4.912;2022-11-15T01:43:33;11.70;99.90
40123;DHT22;25832;45.490;4.912;2022-11-15T01:46:51;11.60;99.90
40123;DHT22;25832;45.490;4.912;2022-11-15T01:48:53;11.60;99.90
40123;DHT22;25832;45.490;4.912;2022-11-15T01:51:22;11.60;99.90
40123;DHT22;25832;45.490;4.912;2022-11-15T01:53:54;11.60;99.90
40123;DHT22;25832;45.490;4.912;2022-11-15T01:56:24;11.60;99.90
40123;DHT22;25832;45.490;4.912;2022-11-15T01:58:51;11.60;99.90
40123;DHT22;25832;45.490;4.912;2022-11-15T02:01:17;11.60;99.90
40123;DHT22;25832;45.490;4.912;2022-11-15T02:04:44;11.60;99.90
40123;DHT22;25832;45.490;4.912;2022-11-15T02:06:50;11.70;99.90
40123;DHT22;25832;45.490;4.912;2022-11-15T02:09:17;11.60;99.90
40123;DHT22;25832;45.490;4.912;2022-11-15T02:11:44;11.60;99.90
40123;DHT22;25832;45.490;4.912;2022-11-15T02:14:10;11.70;99.90
40123;DHT22;25832;45.490;4.912;2022-11-15T02:16:43;11.60;99.90
40123;DHT22;25832;45.490;4.912;2022-11-15T02:25:09;11.70;99.90
40123;DHT22;25832;45.490;4.912;2022-11-15T02:27:46;11.80;99.90
40123;DHT22;25832;45.490;4.912;2022-11-15T02:32:58;11.80;99.90
40123;DHT22;25832;45.490;4.912;2022-11-15T02:35:58;11.70;99.90
40123;DHT22;25832;45.490;4.912;2022-11-15T02:41:03;11.70;99.90
40123;DHT22;25832;45.490;4.912;2022-11-15T02:46:31;11.70;99.90
40123;DHT22;25832;45.490;4.912;2022-11-15T02:49:17;11.70;99.90
40123;DHT22;25832;45.490;4.912;2022-11-15T02:51:45;11.60;99.90
40123;DHT22;25832;45.490;4.912;2022-11-15T02:54:15;11.60;99.90
40123;DHT22;25832;45.490;4.912;2022-11-15T02:56:44;11.60;99.90
40123;DHT22;25832;45.490;4.912;2022-11-15T03:07:37;11.50;99.90
40123;DHT22;25832;45.490;4.912;2022-11-15T03:10:18;11.50;99.90
40123;DHT22;25832;45.490;4.912;2022-11-15T03:12:57;11.50;99.90
40123;DHT22;25832;45.490;4.912;2022-11-15T03:15:38;11.50;99.90
40123;DHT22;25832;45.490;4.912;2022-11-15T03:20:39;11.60;99.90
40123;DHT22;25832;45.490;4.912;2022-11-15T03:23:08;11.60;99.90
40123;DHT22;25832;45.490;4.912;2022-11-15T03:25:40;11.60;99.90
40123;DHT22;25832;45.490;4.912;2022-11-15T03:28:09;11.60;99.90
40123;DHT22;25832;45.490;4.912;2022-11-15T03:30:38;11.60;99.90
40123;DHT22;25832;45.490;4.912;2022-11-15T03:33:05;11.60;99.90
40123;DHT22;25832;45.490;4.912;2022-11-15T03:35:36;11.60;99.90
40123;DHT22;25832;45.490;4.912;2022-11-15T03:40:41;11.60;99.90
40123;DHT22;25832;45.490;4.912;2022-11-15T03:43:15;11.60;99.90
40123;DHT22;25832;45.490;4.912;2022-11-15T03:45:51;11.60;99.90
40123;DHT22;25832;45.490;4.912;2022-11-15T03:48:29;11.60;99.90
40123;DHT22;25832;45.490;4.912;2022-11-15T03:50:56;11.60;99.90
40123;DHT22;25832;45.490;4.912;2022-11-15T03:53:22;11.60;99.90
40123;DHT22;25832;45.490;4.912;2022-11-15T03:55:47;11.50;99.90
40123;DHT22;25832;45.490;4.912;2022-11-15T03:58:13;11.60;99.90
40123;DHT22;25832;45.490;4.912;2022-11-15T04:00:39;11.60;99.90
40123;DHT22;25832;45.490;4.912;2022-11-15T04:03:04;11.60;99.90
40123;DHT22;25832;45.490;4.912;2022-11-15T04:05:30;11.60;99.90
40123;DHT22;25832;45.490;4.912;2022-11-15T04:07:56;11.50;99.90
40123;DHT22;25832;45.490;4.912;2022-11-15T04:10:21;11.60;99.90
40123;DHT22;25832;45.490;4.912;2022-11-15T04:12:47;11.60;99.90
40123;DHT22;25832;45.490;4.912;2022-11-15T04:15:15;11.60;99.90
40123;DHT22;25832;45.490;4.912;2022-11-15T04:17:49;11.60;99.90
40123;DHT22;25832;45.490;4.912;2022-11-15T04:20:26;11.60;99.90
40123;DHT22;25832;45.490;4.912;2022-11-15T04:23:17;11.60;99.90
40123;DHT22;25832;45.490;4.912;2022-11-15T04:26:04;11.50;99.90
40123;DHT22;25832;45.490;4.912;2022-11-15T04:28:30;11.50;99.90
40123;DHT22;25832;45.490;4.912;2022-11-15T04:30:56;11.50;99.90
40123;DHT22;25832;45.490;4.912;2022-11-15T04:33:22;11.50;99.90
40123;DHT22;25832;45.490;4.912;2022-11-15T04:35:48;11.40;99.90
40123;DHT22;25832;45.490;4.912;2022-11-15T04:38:34;11.50;99.90
40123;DHT22;25832;45.490;4.912;2022-11-15T04:41:00;11.50;99.90
40123;DHT22;25832;45.490;4.912;2022-11-15T04:43:26;11.50;99.90
40123;DHT22;25832;45.490;4.912;2022-11-15T04:45:52;11.60;99.90
40123;DHT22;25832;45.490;4.912;2022-11-15T04:48:21;11.60;99.90
40123;DHT22;25832;45.490;4.912;2022-11-15T04:50:49;11.50;99.90
40123;DHT22;25832;45.490;4.912;2022-11-15T04:53:15;11.60;99.90
40123;DHT22;25832;45.490;4.912;2022-11-15T04:55:44;11.60;99.90
40123;DHT22;25832;45.490;4.912;2022-11-15T04:58:10;11.60;99.90
40123;DHT22;25832;45.490;4.912;2022-11-15T05:00:36;11.50;99.90
40123;DHT22;25832;45.490;4.912;2022-11-15T05:03:01;11.50;99.90
40123;DHT22;25832;45.490;4.912;2022-11-15T05:05:46;11.50;99.90
40123;DHT22;25832;45.490;4.912;2022-11-15T05:08:11;11.50;99.90
40123;DHT22;25832;45.490;4.912;2022-11-15T05:10:37;11.50;99.90
40123;DHT22;25832;45.490;4.912;2022-11-15T05:13:03;11.50;99.90
40123;DHT22;25832;45.490;4.912;2022-11-15T05:15:28;11.50;99.90
40123;DHT22;25832;45.490;4.912;2022-11-15T05:17:58;11.50;99.90
40123;DHT22;25832;45.490;4.912;2022-11-15T05:20:25;11.50;99.90
40123;DHT22;25832;45.490;4.912;2022-11-15T05:22:52;11.40;99.90
40123;DHT22;25832;45.490;4.912;2022-11-15T05:25:17;11.50;99.90
40123;DHT22;25832;45.490;4.912;2022-11-15T05:27:43;11.50;99.90
40123;DHT22;25832;45.490;4.912;2022-11-15T05:30:09;11.50;99.90
40123;DHT22;25832;45.490;4.912;2022-11-15T05:32:35;11.50;99.90
40123;DHT22;25832;45.490;4.912;2022-11-15T05:35:01;11.50;99.90
40123;DHT22;25832;45.490;4.912;2022-11-15T05:37:28;11.60;99.90
40123;DHT22;25832;45.490;4.912;2022-11-15T05:39:54;11.60;99.90
40123;DHT22;25832;45.490;4.912;2022-11-15T05:42:20;11.60;99.90
40123;DHT22;25832;45.490;4.912;2022-11-15T05:44:48;11.60;99.90
40123;DHT22;25832;45.490;4.912;2022-11-15T05:47:21;11.60;99.90
40123;DHT22;25832;45.490;4.912;2022-11-15T05:49:50;11.60;99.90
40123;DHT22;25832;45.490;4.912;2022-11-15T05:52:19;11.60;99.90
40123;DHT22;25832;45.490;4.912;2022-11-15T05:54:46;11.60;99.90
40123;DHT22;25832;45.490;4.912;2022-11-15T05:57:11;11.60;99.90
40123;DHT22;25832;45.490;4.912;2022-11-15T05:59:37;11.60;99.90
40123;DHT22;25832;45.490;4.912;2022-11-15T06:02:03;11.60;99.90
40123;DHT22;25832;45.490;4.912;2022-11-15T06:04:29;11.60;99.90
40123;DHT22;25832;45.490;4.912;2022-11-15T06:06:55;11.60;99.90
40123;DHT22;25832;45.490;4.912;2022-11-15T06:09:20;11.60;99.90
40123;DHT22;25832;45.490;4.912;2022-11-15T06:11:46;11.60;99.90
40123;DHT22;25832;45.490;4.912;2022-11-15T06:14:11;11.60;99.90
40123;DHT22;25832;45.490;4.912;2022-11-15T06:16:37;11.60;99.90
40123;DHT22;25832;45.490;4.912;2022-11-15T06:19:03;11.60;99.90
40123;DHT22;25832;45.490;4.912;2022-11-15T06:21:28;11.70;99.90
40123;DHT22;25832;45.490;4.912;2022-11-15T06:23:54;11.70;99.90
40123;DHT22;25832;45.490;4.912;2022-11-15T06:26:20;11.70;99.90
40123;DHT22;25832;45.490;4.912;2022-11-15T06:28:46;11.70;99.90
40123;DHT22;25832;45.490;4.912;2022-11-15T06:31:11;11.70;99.90
40123;DHT22;25832;45.490;4.912;2022-11-15T06:33:38;11.70;99.90
40123;DHT22;25832;45.490;4.912;2022-11-15T06:36:09;11.70;99.90
40123;DHT22;25832;45.490;4.912;2022-11-15T06:38:35;11.70;99.90
40123;DHT22;25832;45.490;4.912;2022-11-15T06:41:03;11.70;99.90
40123;DHT22;25832;45.490;4.912;2022-11-15T06:43:29;11.60;99.90
40123;DHT22;25832;45.490;4.912;2022-11-15T06:45:56;11.60;99.90
40123;DHT22;25832;45.490;4.912;2022-11-15T06:48:22;11.70;99.90
40123;DHT22;25832;45.490;4.912;2022-11-15T06:50:56;11.70;99.90
40123;DHT22;25832;45.490;4.912;2022-11-15T06:53:22;11.70;99.90
40123;DHT22;25832;45.490;4.912;2022-11-15T06:55:48;11.70;99.90
40123;DHT22;25832;45.490;4.912;2022-11-15T06:58:14;11.70;99.90
40123;DHT22;25832;45.490;4.912;2022-11-15T07:00:40;11.70;99.90
40123;DHT22;25832;45.490;4.912;2022-11-15T07:03:06;11.70;99.90
40123;DHT22;25832;45.490;4.912;2022-11-15T07:05:32;11.80;99.90
40123;DHT22;25832;45.490;4.912;2022-11-15T07:07:58;11.70;99.90
40123;DHT22;25832;45.490;4.912;2022-11-15T07:10:24;11.70;99.90
40123;DHT22;25832;45.490;4.912;2022-11-15T07:12:51;11.80;99.90
40123;DHT22;25832;45.490;4.912;2022-11-15T07:15:18;11.80;99.90
40123;DHT22;25832;45.490;4.912;2022-11-15T07:17:44;11.80;99.90
40123;DHT22;25832;45.490;4.912;2022-11-15T07:20:11;11.80;99.90
40123;DHT22;25832;45.490;4.912;2022-11-15T07:22:37;11.80;99.90
40123;DHT22;25832;45.490;4.912;2022-11-15T07:25:03;11.80;99.90
40123;DHT22;25832;45.490;4.912;2022-11-15T07:27:28;11.80;99.90
40123;DHT22;25832;45.490;4.912;2022-11-15T07:29:54;11.80;99.90
40123;DHT22;25832;45.490;4.912;2022-11-15T07:32:20;11.80;99.90
40123;DHT22;25832;45.490;4.912;2022-11-15T07:34:45;11.80;99.90
40123;DHT22;25832;45.490;4.912;2022-11-15T07:37:11;11.80;99.90
40123;DHT22;25832;45.490;4.912;2022-11-15T07:39:37;11.80;99.90
40123;DHT22;25832;45.490;4.912;2022-11-15T07:42:03;11.80;99.90
40123;DHT22;25832;45.490;4.912;2022-11-15T07:44:58;11.90;99.90
40123;DHT22;25832;45.490;4.912;2022-11-15T07:47:23;11.90;99.90
40123;DHT22;25832;45.490;4.912;2022-11-15T07:49:49;11.90;99.90
40123;DHT22;25832;45.490;4.912;2022-11-15T07:52:15;12.00;99.90
40123;DHT22;25832;45.490;4.912;2022-11-15T07:54:40;12.00;99.90
40123;DHT22;25832;45.490;4.912;2022-11-15T07:57:06;12.00;99.90
40123;DHT22;25832;45.490;4.912;2022-11-15T07:59:34;12.00;99.90
40123;DHT22;25832;45.490;4.912;2022-11-15T08:02:00;12.10;99.90
40123;DHT22;25832;45.490;4.912;2022-11-15T08:04:26;12.10;99.90
40123;DHT22;25832;45.490;4.912;2022-11-15T08:06:51;12.10;99.90
40123;DHT22;25832;45.490;4.912;2022-11-15T08:09:17;12.10;99.90
40123;DHT22;25832;45.490;4.912;2022-11-15T08:11:43;12.20;99.90
40123;DHT22;25832;45.490;4.912;2022-11-15T08:14:08;12.20;99.90
40123;DHT22;25832;45.490;4.912;2022-11-15T08:16:34;12.30;99.90
40123;DHT22;25832;45.490;4.912;2022-11-15T08:18:59;12.30;99.90
40123;DHT22;25832;45.490;4.912;2022-11-15T08:21:25;12.40;99.90
40123;DHT22;25832;45.490;4.912;2022-11-15T08:23:51;12.40;99.90
40123;DHT22;25832;45.490;4.912;2022-11-15T08:26:17;12.40;99.90
40123;DHT22;25832;45.490;4.912;2022-11-15T08:28:42;12.50;99.90
40123;DHT22;25832;45.490;4.912;2022-11-15T08:31:14;12.50;99.90
40123;DHT22;25832;45.490;4.912;2022-11-15T08:33:40;12.50;99.90
40123;DHT22;25832;45.490;4.912;2022-11-15T08:36:10;12.60;99.90
40123;DHT22;25832;45.490;4.912;2022-11-15T08:38:36;12.70;99.90
40123;DHT22;25832;45.490;4.912;2022-11-15T08:41:04;12.70;99.90
40123;DHT22;25832;45.490;4.912;2022-11-15T08:43:31;12.80;99.90
40123;DHT22;25832;45.490;4.912;2022-11-15T08:45:57;12.80;99.90
40123;DHT22;25832;45.490;4.912;2022-11-15T08:48:23;12.90;99.90
40123;DHT22;25832;45.490;4.912;2022-11-15T08:50:49;13.00;99.90
40123;DHT22;25832;45.490;4.912;2022-11-15T08:53:14;13.00;99.90
40123;DHT22;25832;45.490;4.912;2022-11-15T08:55:40;13.00;99.90
40123;DHT22;25832;45.490;4.912;2022-11-15T08:58:06;13.00;99.90
40123;DHT22;25832;45.490;4.912;2022-11-15T09:00:32;13.10;99.90
40123;DHT22;25832;45.490;4.912;2022-11-15T09:02:58;13.10;99.90
40123;DHT22;25832;45.490;4.912;2022-11-15T09:05:25;13.20;99.90
40123;DHT22;25832;45.490;4.912;2022-11-15T09:07:54;13.30;99.90
40123;DHT22;25832;45.490;4.912;2022-11-15T09:10:20;13.20;99.90
40123;DHT22;25832;45.490;4.912;2022-11-15T09:12:46;13.30;99.90
40123;DHT22;25832;45.490;4.912;2022-11-15T09:15:15;13.30;99.90
40123;DHT22;25832;45.490;4.912;2022-11-15T09:17:41;13.40;99.90
40123;DHT22;25832;45.490;4.912;2022-11-15T09:20:08;13.40;99.90
40123;DHT22;25832;45.490;4.912;2022-11-15T09:22:34;13.50;99.90
40123;DHT22;25832;45.490;4.912;2022-11-15T09:25:00;13.50;99.90
40123;DHT22;25832;45.490;4.912;2022-11-15T09:27:29;13.50;99.90
40123;DHT22;25832;45.490;4.912;2022-11-15T09:29:55;13.50;99.90
40123;DHT22;25832;45.490;4.912;2022-11-15T09:32:21;13.60;99.90
40123;DHT22;25832;45.490;4.912;2022-11-15T09:34:50;13.60;99.90
40123;DHT22;25832;45.490;4.912;2022-11-15T09:37:16;13.60;99.90
40123;DHT22;25832;45.490;4.912;2022-11-15T09:39:42;13.60;99.90
40123;DHT22;25832;45.490;4.912;2022-11-15T09:47:36;13.70;99.90
40123;DHT22;25832;45.490;4.912;2022-11-15T09:50:09;13.70;99.90
40123;DHT22;25832;45.490;4.912;2022-11-15T09:52:36;13.70;99.90
40123;DHT22;25832;45.490;4.912;2022-11-15T09:55:05;13.80;99.90
40123;DHT22;25832;45.490;4.912;2022-11-15T09:57:32;13.80;99.90
40123;DHT22;25832;45.490;4.912;2022-11-15T10:00:29;13.80;99.90
40123;DHT22;25832;45.490;4.912;2022-11-15T10:03:12;13.80;99.90
40123;DHT22;25832;45.490;4.912;2022-11-15T10:05:47;13.90;99.90
40123;DHT22;25832;45.490;4.912;2022-11-15T10:08:40;13.90;99.90
40123;DHT22;25832;45.490;4.912;2022-11-15T10:11:12;14.00;99.90
40123;DHT22;25832;45.490;4.912;2022-11-15T10:13:42;14.00;99.90
40123;DHT22;25832;45.490;4.912;2022-11-15T10:22:24;14.20;99.90
40123;DHT22;25832;45.490;4.912;2022-11-15T10:27:39;14.20;99.90
40123;DHT22;25832;45.490;4.912;2022-11-15T10:30:17;14.30;99.90
40123;DHT22;25832;45.490;4.912;2022-11-15T10:32:45;14.40;99.90
40123;DHT22;25832;45.490;4.912;2022-11-15T10:35:29;14.40;99.90
40123;DHT22;25832;45.490;4.912;2022-11-15T10:38:10;14.40;99.90
40123;DHT22;25832;45.490;4.912;2022-11-15T10:40:37;14.40;99.90
40123;DHT22;25832;45.490;4.912;2022-11-15T10:45:35;14.40;99.90
40123;DHT22;25832;45.490;4.912;2022-11-15T10:50:43;14.40;99.90
40123;DHT22;25832;45.490;4.912;2022-11-15T10:53:21;14.40;99.90
40123;DHT22;25832;45.490;4.912;2022-11-15T10:55:50;14.50;99.90
40123;DHT22;25832;45.490;4.912;2022-11-15T10:58:36;14.40;99.90
40123;DHT22;25832;45.490;4.912;2022-11-15T11:01:14;14.40;99.90
40123;DHT22;25832;45.490;4.912;2022-11-15T11:03:41;14.40;99.90
40123;DHT22;25832;45.490;4.912;2022-11-15T11:06:09;14.40;99.90
40123;DHT22;25832;45.490;4.912;2022-11-15T11:08:35;14.40;99.90
40123;DHT22;25832;45.490;4.912;2022-11-15T11:11:03;14.50;99.90
40123;DHT22;25832;45.490;4.912;2022-11-15T11:13:30;14.50;99.90
40123;DHT22;25832;45.490;4.912;2022-11-15T11:16:15;14.50;99.90
40123;DHT22;25832;45.490;4.912;2022-11-15T11:21:52;14.60;99.90
40123;DHT22;25832;45.490;4.912;2022-11-15T11:30:20;14.60;99.90
40123;DHT22;25832;45.490;4.912;2022-11-15T11:35:38;14.70;99.90
40123;DHT22;25832;45.490;4.912;2022-11-15T11:38:28;14.70;99.90
40123;DHT22;25832;45.490;4.912;2022-11-15T11:41:23;14.70;99.90
40123;DHT22;25832;45.490;4.912;2022-11-15T11:46:56;14.80;99.90
40123;DHT22;25832;45.490;4.912;2022-11-15T11:49:51;14.80;99.90
40123;DHT22;25832;45.490;4.912;2022-11-15T11:54:52;14.90;99.90
40123;DHT22;25832;45.490;4.912;2022-11-15T12:00:27;15.00;99.90
40123;DHT22;25832;45.490;4.912;2022-11-15T12:03:22;15.00;99.90
40123;DHT22;25832;45.490;4.912;2022-11-15T12:05:54;15.10;99.90
40123;DHT22;25832;45.490;4.912;2022-11-15T12:13:34;15.00;99.90
40123;DHT22;25832;45.490;4.912;2022-11-15T12:18:41;15.00;99.90
40123;DHT22;25832;45.490;4.912;2022-11-15T12:21:24;14.90;99.90
40123;DHT22;25832;45.490;4.912;2022-11-15T12:23:58;14.90;99.90
40123;DHT22;25832;45.490;4.912;2022-11-15T12:26:30;14.90;99.90
40123;DHT22;25832;45.490;4.912;2022-11-15T12:29:00;14.90;99.90
40123;DHT22;25832;45.490;4.912;2022-11-15T12:31:42;14.90;99.90
40123;DHT22;25832;45.490;4.912;2022-11-15T12:36:51;14.90;99.90
40123;DHT22;25832;45.490;4.912;2022-11-15T12:39:17;14.90;99.90
40123;DHT22;25832;45.490;4.912;2022-11-15T12:59:49;15.10;99.90
40123;DHT22;25832;45.490;4.912;2022-11-15T13:02:22;15.20;99.90
40123;DHT22;25832;45.490;4.912;2022-11-15T13:04:50;15.20;99.90
40123;DHT22;25832;45.490;4.912;2022-11-15T13:17:55;15.30;99.90
40123;DHT22;25832;45.490;4.912;2022-11-15T13:20:32;15.30;99.90
40123;DHT22;25832;45.490;4.912;2022-11-15T13:28:09;15.50;99.90
40123;DHT22;25832;45.490;4.912;2022-11-15T13:30:36;15.60;99.90
40123;DHT22;25832;45.490;4.912;2022-11-15T13:33:32;15.50;99.90
40123;DHT22;25832;45.490;4.912;2022-11-15T13:36:01;15.50;99.90
40123;DHT22;25832;45.490;4.912;2022-11-15T13:38:31;15.50;99.90
40123;DHT22;25832;45.490;4.912;2022-11-15T13:40:58;15.50;99.90
40123;DHT22;25832;45.490;4.912;2022-11-15T13:43:29;15.40;99.90
40123;DHT22;25832;45.490;4.912;2022-11-15T13:48:36;15.30;99.90
40123;DHT22;25832;45.490;4.912;2022-11-15T13:51:05;15.30;99.90
40123;DHT22;25832;45.490;4.912;2022-11-15T13:53:36;15.40;99.90
40123;DHT22;25832;45.490;4.912;2022-11-15T13:56:06;15.40;99.90
40123;DHT22;25832;45.490;4.912;2022-11-15T13:58:31;15.40;99.90
40123;DHT22;25832;45.490;4.912;2022-11-15T14:01:00;15.40;99.90
40123;DHT22;25832;45.490;4.912;2022-11-15T14:03:28;15.40;99.90
40123;DHT22;25832;45.490;4.912;2022-11-15T14:06:13;15.40;99.90
40123;DHT22;25832;45.490;4.912;2022-11-15T14:08:42;15.40;99.90
40123;DHT22;25832;45.490;4.912;2022-11-15T14:11:22;15.40;99.90
40123;DHT22;25832;45.490;4.912;2022-11-15T14:16:45;15.30;99.90
40123;DHT22;25832;45.490;4.912;2022-11-15T14:22:17;15.30;99.90
40123;DHT22;25832;45.490;4.912;2022-11-15T14:25:02;15.30;99.90
40123;DHT22;25832;45.490;4.912;2022-11-15T14:27:29;15.30;99.90
40123;DHT22;25832;45.490;4.912;2022-11-15T14:29:55;15.30;99.90
40123;DHT22;25832;45.490;4.912;2022-11-15T14:32:23;15.30;99.90
40123;DHT22;25832;45.490;4.912;2022-11-15T14:37:33;15.20;99.90
40123;DHT22;25832;45.490;4.912;2022-11-15T14:40:00;15.20;99.90
40123;DHT22;25832;45.490;4.912;2022-11-15T14:42:27;15.10;99.90
40123;DHT22;25832;45.490;4.912;2022-11-15T14:44:53;15.10;99.90
40123;DHT22;25832;45.490;4.912;2022-11-15T14:47:18;15.10;99.90
40123;DHT22;25832;45.490;4.912;2022-11-15T14:49:45;15.00;99.90
40123;DHT22;25832;45.490;4.912;2022-11-15T14:52:28;15.00;99.90
40123;DHT22;25832;45.490;4.912;2022-11-15T14:54:55;15.00;99.90
40123;DHT22;25832;45.490;4.912;2022-11-15T14:57:22;14.90;99.90
40123;DHT22;25832;45.490;4.912;2022-11-15T14:59:47;14.80;99.90
40123;DHT22;25832;45.490;4.912;2022-11-15T15:02:24;14.70;99.90
40123;DHT22;25832;45.490;4.912;2022-11-15T15:04:50;14.60;99.90
40123;DHT22;25832;45.490;4.912;2022-11-15T15:07:16;14.50;99.90
40123;DHT22;25832;45.490;4.912;2022-11-15T15:09:43;14.40;99.90
40123;DHT22;25832;45.490;4.912;2022-11-15T15:14:40;14.30;99.90
40123;DHT22;25832;45.490;4.912;2022-11-15T15:17:06;14.30;99.90
40123;DHT22;25832;45.490;4.912;2022-11-15T15:19:31;14.20;99.90
40123;DHT22;25832;45.490;4.912;2022-11-15T15:21:57;14.20;99.90
40123;DHT22;25832;45.490;4.912;2022-11-15T15:24:23;14.10;99.90
40123;DHT22;25832;45.490;4.912;2022-11-15T15:26:48;14.10;99.90
40123;DHT22;25832;45.490;4.912;2022-11-15T15:29:14;14.00;99.90
40123;DHT22;25832;45.490;4.912;2022-11-15T15:31:39;14.10;99.90
40123;DHT22;25832;45.490;4.912;2022-11-15T15:34:05;14.00;99.90
40123;DHT22;25832;45.490;4.912;2022-11-15T15:36:31;14.00;99.90
40123;DHT22;25832;45.490;4.912;2022-11-15T15:38:56;14.00;99.90
40123;DHT22;25832;45.490;4.912;2022-11-15T15:41:23;14.00;99.90
40123;DHT22;25832;45.490;4.912;2022-11-15T15:43:48;13.90;99.90
40123;DHT22;25832;45.490;4.912;2022-11-15T15:46:16;13.90;99.90
40123;DHT22;25832;45.490;4.912;2022-11-15T15:48:42;13.90;99.90
40123;DHT22;25832;45.490;4.912;2022-11-15T15:51:08;13.80;99.90
40123;DHT22;25832;45.490;4.912;2022-11-15T15:53:34;13.90;99.90
40123;DHT22;25832;45.490;4.912;2022-11-15T15:56:00;13.80;99.90
40123;DHT22;25832;45.490;4.912;2022-11-15T15:58:26;13.80;99.90
40123;DHT22;25832;45.490;4.912;2022-11-15T16:00:51;13.80;99.90
40123;DHT22;25832;45.490;4.912;2022-11-15T16:03:17;13.80;99.90
40123;DHT22;25832;45.490;4.912;2022-11-15T16:05:44;13.80;99.90
40123;DHT22;25832;45.490;4.912;2022-11-15T16:08:22;13.90;99.90
40123;DHT22;25832;45.490;4.912;2022-11-15T16:10:48;13.80;99.90
40123;DHT22;25832;45.490;4.912;2022-11-15T16:13:14;13.80;99.90
40123;DHT22;25832;45.490;4.912;2022-11-15T16:15:40;13.80;99.90
40123;DHT22;25832;45.490;4.912;2022-11-15T16:18:14;13.80;99.90
40123;DHT22;25832;45.490;4.912;2022-11-15T16:20:45;13.70;99.90
40123;DHT22;25832;45.490;4.912;2022-11-15T16:23:13;13.70;99.90
40123;DHT22;25832;45.490;4.912;2022-11-15T16:28:24;13.80;99.90
40123;DHT22;25832;45.490;4.912;2022-11-15T16:31:02;13.70;99.90
40123;DHT22;25832;45.490;4.912;2022-11-15T16:33:29;13.80;99.90
40123;DHT22;25832;45.490;4.912;2022-11-15T16:35:54;13.70;99.90
40123;DHT22;25832;45.490;4.912;2022-11-15T16:38:20;13.60;99.90
40123;DHT22;25832;45.490;4.912;2022-11-15T16:40:46;13.60;99.90
40123;DHT22;25832;45.490;4.912;2022-11-15T16:43:11;13.60;99.90
40123;DHT22;25832;45.490;4.912;2022-11-15T16:45:37;13.60;99.90
40123;DHT22;25832;45.490;4.912;2022-11-15T16:48:04;13.60;99.90
40123;DHT22;25832;45.490;4.912;2022-11-15T16:50:34;13.60;99.90
40123;DHT22;25832;45.490;4.912;2022-11-15T16:53:05;13.50;99.90
40123;DHT22;25832;45.490;4.912;2022-11-15T16:55:31;13.50;99.90
40123;DHT22;25832;45.490;4.912;2022-11-15T16:57:57;13.50;99.90
40123;DHT22;25832;45.490;4.912;2022-11-15T17:00:24;13.60;99.90
40123;DHT22;25832;45.490;4.912;2022-11-15T17:02:50;13.50;99.90
40123;DHT22;25832;45.490;4.912;2022-11-15T17:05:18;13.50;99.90
40123;DHT22;25832;45.490;4.912;2022-11-15T17:07:47;13.50;99.90
40123;DHT22;25832;45.490;4.912;2022-11-15T17:10:18;13.60;99.90
40123;DHT22;25832;45.490;4.912;2022-11-15T17:12:44;13.50;99.90
40123;DHT22;25832;45.490;4.912;2022-11-15T17:15:11;13.60;99.90
40123;DHT22;25832;45.490;4.912;2022-11-15T17:17:38;13.60;99.90
40123;DHT22;25832;45.490;4.912;2022-11-15T17:20:04;13.60;99.90
40123;DHT22;25832;45.490;4.912;2022-11-15T17:22:37;13.70;99.90
40123;DHT22;25832;45.490;4.912;2022-11-15T17:25:03;13.60;99.90
40123;DHT22;25832;45.490;4.912;2022-11-15T17:27:30;13.60;99.90
40123;DHT22;25832;45.490;4.912;2022-11-15T17:29:55;13.60;99.90
40123;DHT22;25832;45.490;4.912;2022-11-15T17:32:21;13.60;99.90
40123;DHT22;25832;45.490;4.912;2022-11-15T17:34:47;13.60;99.90
40123;DHT22;25832;45.490;4.912;2022-11-15T17:37:12;13.60;99.90
40123;DHT22;25832;45.490;4.912;2022-11-15T17:39:38;13.60;99.90
40123;DHT22;25832;45.490;4.912;2022-11-15T17:42:04;13.60;99.90
40123;DHT22;25832;45.490;4.912;2022-11-15T17:44:30;13.60;99.90
40123;DHT22;25832;45.490;4.912;2022-11-15T17:46:56;13.60;99.90
40123;DHT22;25832;45.490;4.912;2022-11-15T17:49:22;13.60;99.90